sensor_id;sensor_type;location;lat;lon;timestamp;P1;durP1;ratioP1;P2;durP2;ratioP2
71570;SDS011;59407;42.682;23.322;2023-08-17T00:00:11;8.97;;;5.03;;
71570;SDS011;59407;42.682;23.322;2023-08-17T00:02:40;8.77;;;5.03;;
71570;SDS011;59407;42.682;23.322;2023-08-17T00:05:06;6.75;;;4.18;;
71570;SDS011;59407;42.682;23.322;2023-08-17T00:07:31;7.82;;;5.13;;
71570;SDS011;59407;42.682;23.322;2023-08-17T00:09:57;7.87;;;4.60;;
71570;SDS011;59407;42.682;23.322;2023-08-17T00:12:22;8.02;;;5.20;;
71570;SDS011;59407;42.682;23.322;2023-08-17T00:14:48;8.33;;;4.97;;
71570;SDS011;59407;42.682;23.322;2023-08-17T00:17:13;7.60;;;4.57;;
71570;SDS011;59407;42.682;23.322;2023-08-17T00:19:40;8.07;;;4.93;;
71570;SDS011;59407;42.682;23.322;2023-08-17T00:22:06;7.80;;;4.28;;
71570;SDS011;59407;42.682;23.322;2023-08-17T00:24:31;9.67;;;4.87;;
71570;SDS011;59407;42.682;23.322;2023-08-17T00:26:57;5.80;;;3.90;;
71570;SDS011;59407;42.682;23.322;2023-08-17T00:29:22;8.37;;;4.20;;
71570;SDS011;59407;42.682;23.322;2023-08-17T00:31:48;6.67;;;4.13;;
71570;SDS011;59407;42.682;23.322;2023-08-17T00:34:13;6.63;;;3.70;;
71570;SDS011;59407;42.682;23.322;2023-08-17T00:36:38;6.47;;;3.63;;
71570;SDS011;59407;42.682;23.322;2023-08-17T00:39:04;6.43;;;3.87;;
71570;SDS011;59407;42.682;23.322;2023-08-17T00:41:31;6.63;;;4.03;;
71570;SDS011;59407;42.682;23.322;2023-08-17T00:43:56;8.00;;;3.70;;
71570;SDS011;59407;42.682;23.322;2023-08-17T00:46:22;9.40;;;3.87;;
71570;SDS011;59407;42.682;23.322;2023-08-17T00:48:48;5.70;;;3.58;;
71570;SDS011;59407;42.682;23.322;2023-08-17T00:51:13;7.00;;;3.83;;
71570;SDS011;59407;42.682;23.322;2023-08-17T00:53:39;5.20;;;3.33;;
71570;SDS011;59407;42.682;23.322;2023-08-17T00:56:05;5.43;;;3.25;;
71570;SDS011;59407;42.682;23.322;2023-08-17T00:58:33;6.28;;;3.63;;
71570;SDS011;59407;42.682;23.322;2023-08-17T01:00:59;6.13;;;3.50;;
71570;SDS011;59407;42.682;23.322;2023-08-17T01:03:24;5.60;;;3.13;;
71570;SDS011;59407;42.682;23.322;2023-08-17T01:05:55;7.20;;;3.60;;
71570;SDS011;59407;42.682;23.322;2023-08-17T01:08:21;5.40;;;3.00;;
71570;SDS011;59407;42.682;23.322;2023-08-17T01:10:57;5.70;;;3.13;;
71570;SDS011;59407;42.682;23.322;2023-08-17T01:16:50;7.05;;;3.88;;
71570;SDS011;59407;42.682;23.322;2023-08-17T01:19:27;4.75;;;2.83;;
71570;SDS011;59407;42.682;23.322;2023-08-17T01:22:00;6.78;;;2.90;;
71570;SDS011;59407;42.682;23.322;2023-08-17T01:24:31;6.37;;;3.30;;
71570;SDS011;59407;42.682;23.322;2023-08-17T01:26:56;6.35;;;3.35;;
71570;SDS011;59407;42.682;23.322;2023-08-17T01:29:22;8.63;;;3.43;;
71570;SDS011;59407;42.682;23.322;2023-08-17T01:31:52;4.20;;;2.70;;
71570;SDS011;59407;42.682;23.322;2023-08-17T01:34:24;7.70;;;3.25;;
71570;SDS011;59407;42.682;23.322;2023-08-17T01:36:52;5.15;;;3.03;;
71570;SDS011;59407;42.682;23.322;2023-08-17T01:39:19;4.90;;;2.80;;
71570;SDS011;59407;42.682;23.322;2023-08-17T01:41:47;5.90;;;3.25;;
71570;SDS011;59407;42.682;23.322;2023-08-17T01:44:13;6.43;;;3.20;;
71570;SDS011;59407;42.682;23.322;2023-08-17T01:46:38;5.43;;;2.97;;
71570;SDS011;59407;42.682;23.322;2023-08-17T01:49:04;5.30;;;3.20;;
71570;SDS011;59407;42.682;23.322;2023-08-17T01:51:29;5.03;;;3.00;;
71570;SDS011;59407;42.682;23.322;2023-08-17T01:53:55;7.67;;;3.20;;
71570;SDS011;59407;42.682;23.322;2023-08-17T01:56:20;6.03;;;2.97;;
71570;SDS011;59407;42.682;23.322;2023-08-17T01:58:45;5.33;;;2.77;;
71570;SDS011;59407;42.682;23.322;2023-08-17T02:01:11;5.83;;;3.10;;
71570;SDS011;59407;42.682;23.322;2023-08-17T02:03:36;5.07;;;2.83;;
71570;SDS011;59407;42.682;23.322;2023-08-17T02:06:03;6.63;;;3.15;;
71570;SDS011;59407;42.682;23.322;2023-08-17T02:08:29;5.83;;;2.40;;
71570;SDS011;59407;42.682;23.322;2023-08-17T02:10:54;5.93;;;2.63;;
71570;SDS011;59407;42.682;23.322;2023-08-17T02:13:20;5.40;;;3.00;;
71570;SDS011;59407;42.682;23.322;2023-08-17T02:15:46;7.38;;;2.72;;
71570;SDS011;59407;42.682;23.322;2023-08-17T02:18:11;6.30;;;3.22;;
71570;SDS011;59407;42.682;23.322;2023-08-17T02:20:37;5.83;;;2.50;;
71570;SDS011;59407;42.682;23.322;2023-08-17T02:23:02;4.63;;;2.67;;
71570;SDS011;59407;42.682;23.322;2023-08-17T02:25:28;4.60;;;2.67;;
71570;SDS011;59407;42.682;23.322;2023-08-17T02:28:00;6.23;;;2.90;;
71570;SDS011;59407;42.682;23.322;2023-08-17T02:30:26;4.28;;;2.58;;
71570;SDS011;59407;42.682;23.322;2023-08-17T02:32:52;6.40;;;3.00;;
71570;SDS011;59407;42.682;23.322;2023-08-17T02:35:18;7.43;;;3.30;;
71570;SDS011;59407;42.682;23.322;2023-08-17T02:37:43;4.60;;;2.50;;
71570;SDS011;59407;42.682;23.322;2023-08-17T02:40:09;5.03;;;2.63;;
71570;SDS011;59407;42.682;23.322;2023-08-17T02:42:34;5.18;;;2.80;;
71570;SDS011;59407;42.682;23.322;2023-08-17T02:45:00;6.85;;;2.65;;
71570;SDS011;59407;42.682;23.322;2023-08-17T02:47:26;7.80;;;2.50;;
71570;SDS011;59407;42.682;23.322;2023-08-17T02:49:51;3.90;;;2.60;;
71570;SDS011;59407;42.682;23.322;2023-08-17T02:52:17;5.40;;;2.67;;
71570;SDS011;59407;42.682;23.322;2023-08-17T02:54:42;4.57;;;2.50;;
71570;SDS011;59407;42.682;23.322;2023-08-17T02:57:09;5.20;;;2.70;;
71570;SDS011;59407;42.682;23.322;2023-08-17T02:59:34;5.10;;;2.60;;
71570;SDS011;59407;42.682;23.322;2023-08-17T03:02:00;4.10;;;2.80;;
71570;SDS011;59407;42.682;23.322;2023-08-17T03:04:25;4.37;;;2.40;;
71570;SDS011;59407;42.682;23.322;2023-08-17T03:06:51;4.95;;;2.70;;
71570;SDS011;59407;42.682;23.322;2023-08-17T03:09:16;5.00;;;2.33;;
71570;SDS011;59407;42.682;23.322;2023-08-17T03:11:41;4.20;;;2.60;;
71570;SDS011;59407;42.682;23.322;2023-08-17T03:14:07;5.27;;;2.70;;
71570;SDS011;59407;42.682;23.322;2023-08-17T03:16:32;4.63;;;2.70;;
71570;SDS011;59407;42.682;23.322;2023-08-17T03:18:58;4.47;;;2.50;;
71570;SDS011;59407;42.682;23.322;2023-08-17T03:21:24;5.17;;;2.70;;
71570;SDS011;59407;42.682;23.322;2023-08-17T03:23:49;5.07;;;2.85;;
71570;SDS011;59407;42.682;23.322;2023-08-17T03:26:15;4.40;;;2.55;;
71570;SDS011;59407;42.682;23.322;2023-08-17T03:28:41;4.77;;;2.57;;
71570;SDS011;59407;42.682;23.322;2023-08-17T03:31:06;7.00;;;2.90;;
71570;SDS011;59407;42.682;23.322;2023-08-17T03:33:33;4.72;;;2.45;;
71570;SDS011;59407;42.682;23.322;2023-08-17T03:35:59;4.30;;;2.63;;
71570;SDS011;59407;42.682;23.322;2023-08-17T03:38:25;5.13;;;2.67;;
71570;SDS011;59407;42.682;23.322;2023-08-17T03:40:50;6.40;;;2.77;;
71570;SDS011;59407;42.682;23.322;2023-08-17T03:43:15;5.85;;;3.13;;
71570;SDS011;59407;42.682;23.322;2023-08-17T03:45:42;5.77;;;2.70;;
71570;SDS011;59407;42.682;23.322;2023-08-17T03:48:08;5.82;;;2.95;;
71570;SDS011;59407;42.682;23.322;2023-08-17T03:50:34;4.40;;;2.97;;
71570;SDS011;59407;42.682;23.322;2023-08-17T03:52:59;6.55;;;2.83;;
71570;SDS011;59407;42.682;23.322;2023-08-17T03:55:24;5.17;;;2.87;;
71570;SDS011;59407;42.682;23.322;2023-08-17T03:57:50;4.93;;;2.63;;
71570;SDS011;59407;42.682;23.322;2023-08-17T04:00:15;6.07;;;2.80;;
71570;SDS011;59407;42.682;23.322;2023-08-17T04:02:41;6.07;;;3.13;;
71570;SDS011;59407;42.682;23.322;2023-08-17T04:05:07;4.70;;;2.78;;
71570;SDS011;59407;42.682;23.322;2023-08-17T04:07:34;4.53;;;2.55;;
71570;SDS011;59407;42.682;23.322;2023-08-17T04:10:00;9.63;;;3.57;;
71570;SDS011;59407;42.682;23.322;2023-08-17T04:12:25;6.63;;;2.80;;
71570;SDS011;59407;42.682;23.322;2023-08-17T04:14:51;5.25;;;3.05;;
71570;SDS011;59407;42.682;23.322;2023-08-17T04:17:16;5.47;;;3.27;;
71570;SDS011;59407;42.682;23.322;2023-08-17T04:19:42;6.47;;;3.37;;
71570;SDS011;59407;42.682;23.322;2023-08-17T04:22:07;4.10;;;2.63;;
71570;SDS011;59407;42.682;23.322;2023-08-17T04:24:34;8.07;;;3.23;;
71570;SDS011;59407;42.682;23.322;2023-08-17T04:26:59;5.18;;;2.90;;
71570;SDS011;59407;42.682;23.322;2023-08-17T04:29:25;4.50;;;3.00;;
71570;SDS011;59407;42.682;23.322;2023-08-17T04:31:50;6.53;;;3.30;;
71570;SDS011;59407;42.682;23.322;2023-08-17T04:34:16;8.63;;;3.10;;
71570;SDS011;59407;42.682;23.322;2023-08-17T04:36:44;5.27;;;2.80;;
71570;SDS011;59407;42.682;23.322;2023-08-17T04:39:10;5.37;;;2.47;;
71570;SDS011;59407;42.682;23.322;2023-08-17T04:41:36;6.63;;;3.00;;
71570;SDS011;59407;42.682;23.322;2023-08-17T04:44:02;5.72;;;3.20;;
71570;SDS011;59407;42.682;23.322;2023-08-17T04:46:27;7.93;;;3.67;;
71570;SDS011;59407;42.682;23.322;2023-08-17T04:48:53;5.93;;;3.60;;
71570;SDS011;59407;42.682;23.322;2023-08-17T04:51:19;8.80;;;4.37;;
71570;SDS011;59407;42.682;23.322;2023-08-17T04:53:44;8.63;;;3.73;;
71570;SDS011;59407;42.682;23.322;2023-08-17T04:56:10;5.97;;;3.67;;
71570;SDS011;59407;42.682;23.322;2023-08-17T04:58:36;7.53;;;4.15;;
71570;SDS011;59407;42.682;23.322;2023-08-17T05:01:05;7.75;;;3.95;;
71570;SDS011;59407;42.682;23.322;2023-08-17T05:03:31;6.40;;;3.33;;
71570;SDS011;59407;42.682;23.322;2023-08-17T05:05:57;6.87;;;3.87;;
71570;SDS011;59407;42.682;23.322;2023-08-17T05:08:23;7.22;;;3.75;;
71570;SDS011;59407;42.682;23.322;2023-08-17T05:10:54;6.45;;;3.60;;
71570;SDS011;59407;42.682;23.322;2023-08-17T05:13:21;7.03;;;3.77;;
71570;SDS011;59407;42.682;23.322;2023-08-17T05:15:49;7.28;;;3.83;;
71570;SDS011;59407;42.682;23.322;2023-08-17T05:18:16;6.43;;;3.70;;
71570;SDS011;59407;42.682;23.322;2023-08-17T05:20:42;8.60;;;3.88;;
71570;SDS011;59407;42.682;23.322;2023-08-17T05:23:09;6.80;;;3.37;;
71570;SDS011;59407;42.682;23.322;2023-08-17T05:25:34;5.13;;;3.63;;
71570;SDS011;59407;42.682;23.322;2023-08-17T05:28:01;6.45;;;3.58;;
71570;SDS011;59407;42.682;23.322;2023-08-17T05:30:27;6.20;;;3.53;;
71570;SDS011;59407;42.682;23.322;2023-08-17T05:32:52;6.15;;;3.22;;
71570;SDS011;59407;42.682;23.322;2023-08-17T05:35:18;5.00;;;2.80;;
71570;SDS011;59407;42.682;23.322;2023-08-17T05:37:47;7.60;;;3.90;;
71570;SDS011;59407;42.682;23.322;2023-08-17T05:40:14;7.43;;;3.30;;
71570;SDS011;59407;42.682;23.322;2023-08-17T05:42:39;5.43;;;3.30;;
71570;SDS011;59407;42.682;23.322;2023-08-17T05:45:05;6.07;;;3.75;;
71570;SDS011;59407;42.682;23.322;2023-08-17T05:47:31;5.90;;;2.60;;
71570;SDS011;59407;42.682;23.322;2023-08-17T05:49:57;5.07;;;2.77;;
71570;SDS011;59407;42.682;23.322;2023-08-17T05:52:22;3.83;;;2.40;;
71570;SDS011;59407;42.682;23.322;2023-08-17T05:54:48;5.83;;;3.20;;
71570;SDS011;59407;42.682;23.322;2023-08-17T05:57:13;5.93;;;2.70;;
71570;SDS011;59407;42.682;23.322;2023-08-17T05:59:38;5.83;;;2.50;;
71570;SDS011;59407;42.682;23.322;2023-08-17T06:02:04;7.73;;;3.00;;
71570;SDS011;59407;42.682;23.322;2023-08-17T06:04:30;7.13;;;2.47;;
71570;SDS011;59407;42.682;23.322;2023-08-17T06:06:56;4.38;;;2.60;;
71570;SDS011;59407;42.682;23.322;2023-08-17T06:09:27;5.68;;;3.28;;
71570;SDS011;59407;42.682;23.322;2023-08-17T06:11:52;6.30;;;3.70;;
71570;SDS011;59407;42.682;23.322;2023-08-17T06:14:18;6.23;;;3.50;;
71570;SDS011;59407;42.682;23.322;2023-08-17T06:16:43;6.27;;;3.40;;
71570;SDS011;59407;42.682;23.322;2023-08-17T06:19:09;7.07;;;4.55;;
71570;SDS011;59407;42.682;23.322;2023-08-17T06:21:35;12.67;;;6.77;;
71570;SDS011;59407;42.682;23.322;2023-08-17T06:24:01;10.00;;;5.28;;
71570;SDS011;59407;42.682;23.322;2023-08-17T06:26:30;6.72;;;4.28;;
71570;SDS011;59407;42.682;23.322;2023-08-17T06:29:00;5.90;;;3.80;;
71570;SDS011;59407;42.682;23.322;2023-08-17T06:34:13;6.38;;;3.25;;
71570;SDS011;59407;42.682;23.322;2023-08-17T06:36:42;7.75;;;4.03;;
71570;SDS011;59407;42.682;23.322;2023-08-17T06:39:08;7.88;;;3.33;;
71570;SDS011;59407;42.682;23.322;2023-08-17T06:41:35;6.03;;;3.13;;
71570;SDS011;59407;42.682;23.322;2023-08-17T06:44:01;10.45;;;3.80;;
71570;SDS011;59407;42.682;23.322;2023-08-17T06:46:27;7.68;;;3.30;;
71570;SDS011;59407;42.682;23.322;2023-08-17T06:48:53;6.47;;;2.90;;
71570;SDS011;59407;42.682;23.322;2023-08-17T06:51:18;5.60;;;2.90;;
71570;SDS011;59407;42.682;23.322;2023-08-17T06:53:44;5.50;;;3.20;;
71570;SDS011;59407;42.682;23.322;2023-08-17T06:56:10;6.53;;;2.93;;
71570;SDS011;59407;42.682;23.322;2023-08-17T06:58:35;5.47;;;3.28;;
71570;SDS011;59407;42.682;23.322;2023-08-17T07:01:01;7.20;;;3.73;;
71570;SDS011;59407;42.682;23.322;2023-08-17T07:03:46;6.47;;;3.13;;
71570;SDS011;59407;42.682;23.322;2023-08-17T07:06:14;5.13;;;3.05;;
71570;SDS011;59407;42.682;23.322;2023-08-17T07:08:40;5.83;;;3.37;;
71570;SDS011;59407;42.682;23.322;2023-08-17T07:11:06;5.57;;;3.00;;
71570;SDS011;59407;42.682;23.322;2023-08-17T07:13:33;5.97;;;3.38;;
71570;SDS011;59407;42.682;23.322;2023-08-17T07:15:59;5.30;;;2.50;;
71570;SDS011;59407;42.682;23.322;2023-08-17T07:18:24;4.50;;;2.97;;
71570;SDS011;59407;42.682;23.322;2023-08-17T07:20:50;4.30;;;2.58;;
71570;SDS011;59407;42.682;23.322;2023-08-17T07:23:16;6.18;;;2.50;;
71570;SDS011;59407;42.682;23.322;2023-08-17T07:25:41;5.57;;;2.93;;
71570;SDS011;59407;42.682;23.322;2023-08-17T07:28:06;5.33;;;2.50;;
71570;SDS011;59407;42.682;23.322;2023-08-17T07:30:32;3.95;;;2.55;;
71570;SDS011;59407;42.682;23.322;2023-08-17T07:32:58;8.17;;;3.80;;
71570;SDS011;59407;42.682;23.322;2023-08-17T07:35:24;5.68;;;3.13;;
71570;SDS011;59407;42.682;23.322;2023-08-17T07:37:50;5.70;;;2.63;;
71570;SDS011;59407;42.682;23.322;2023-08-17T07:40:15;5.30;;;3.27;;
71570;SDS011;59407;42.682;23.322;2023-08-17T07:42:42;9.00;;;4.70;;
71570;SDS011;59407;42.682;23.322;2023-08-17T07:45:07;4.93;;;2.70;;
71570;SDS011;59407;42.682;23.322;2023-08-17T07:47:37;4.10;;;2.60;;
71570;SDS011;59407;42.682;23.322;2023-08-17T07:50:03;4.60;;;2.72;;
71570;SDS011;59407;42.682;23.322;2023-08-17T07:52:30;5.97;;;3.47;;
71570;SDS011;59407;42.682;23.322;2023-08-17T07:54:55;4.73;;;2.63;;
71570;SDS011;59407;42.682;23.322;2023-08-17T07:57:23;4.75;;;2.60;;
71570;SDS011;59407;42.682;23.322;2023-08-17T07:59:48;8.10;;;2.80;;
71570;SDS011;59407;42.682;23.322;2023-08-17T08:02:17;5.03;;;2.97;;
71570;SDS011;59407;42.682;23.322;2023-08-17T08:04:42;4.20;;;2.20;;
71570;SDS011;59407;42.682;23.322;2023-08-17T08:07:08;4.67;;;2.87;;
71570;SDS011;59407;42.682;23.322;2023-08-17T08:09:34;3.90;;;2.50;;
71570;SDS011;59407;42.682;23.322;2023-08-17T08:12:00;5.93;;;2.70;;
71570;SDS011;59407;42.682;23.322;2023-08-17T08:14:25;5.37;;;2.60;;
71570;SDS011;59407;42.682;23.322;2023-08-17T08:16:51;4.70;;;2.67;;
71570;SDS011;59407;42.682;23.322;2023-08-17T08:19:16;4.30;;;2.30;;
71570;SDS011;59407;42.682;23.322;2023-08-17T08:21:43;5.72;;;2.45;;
71570;SDS011;59407;42.682;23.322;2023-08-17T08:24:09;4.03;;;2.17;;
71570;SDS011;59407;42.682;23.322;2023-08-17T08:26:35;3.53;;;1.90;;
71570;SDS011;59407;42.682;23.322;2023-08-17T08:29:01;5.05;;;2.60;;
71570;SDS011;59407;42.682;23.322;2023-08-17T08:31:27;5.60;;;2.23;;
71570;SDS011;59407;42.682;23.322;2023-08-17T08:33:52;4.13;;;2.13;;
71570;SDS011;59407;42.682;23.322;2023-08-17T08:36:19;4.60;;;2.40;;
71570;SDS011;59407;42.682;23.322;2023-08-17T08:38:44;4.43;;;2.07;;
71570;SDS011;59407;42.682;23.322;2023-08-17T08:41:10;3.67;;;2.50;;
71570;SDS011;59407;42.682;23.322;2023-08-17T08:43:41;3.73;;;2.40;;
71570;SDS011;59407;42.682;23.322;2023-08-17T08:46:06;4.68;;;2.50;;
71570;SDS011;59407;42.682;23.322;2023-08-17T08:48:36;3.80;;;2.08;;
71570;SDS011;59407;42.682;23.322;2023-08-17T08:51:06;3.78;;;2.30;;
71570;SDS011;59407;42.682;23.322;2023-08-17T08:54:01;5.43;;;2.60;;
71570;SDS011;59407;42.682;23.322;2023-08-17T08:56:37;5.60;;;1.95;;
71570;SDS011;59407;42.682;23.322;2023-08-17T08:59:04;3.92;;;2.15;;
71570;SDS011;59407;42.682;23.322;2023-08-17T09:01:32;3.70;;;2.03;;
71570;SDS011;59407;42.682;23.322;2023-08-17T09:03:59;5.63;;;2.30;;
71570;SDS011;59407;42.682;23.322;2023-08-17T09:06:25;5.43;;;2.05;;
71570;SDS011;59407;42.682;23.322;2023-08-17T09:08:52;3.55;;;2.10;;
71570;SDS011;59407;42.682;23.322;2023-08-17T09:11:17;7.10;;;2.13;;
71570;SDS011;59407;42.682;23.322;2023-08-17T09:13:43;5.40;;;2.03;;
71570;SDS011;59407;42.682;23.322;2023-08-17T09:16:09;4.53;;;2.30;;
71570;SDS011;59407;42.682;23.322;2023-08-17T09:21:24;4.90;;;2.33;;
71570;SDS011;59407;42.682;23.322;2023-08-17T09:23:50;4.38;;;2.10;;
71570;SDS011;59407;42.682;23.322;2023-08-17T09:26:31;5.05;;;2.40;;
71570;SDS011;59407;42.682;23.322;2023-08-17T09:28:57;4.30;;;2.03;;
71570;SDS011;59407;42.682;23.322;2023-08-17T09:31:24;4.18;;;2.20;;
71570;SDS011;59407;42.682;23.322;2023-08-17T09:33:51;4.57;;;2.30;;
71570;SDS011;59407;42.682;23.322;2023-08-17T09:36:20;4.70;;;2.20;;
71570;SDS011;59407;42.682;23.322;2023-08-17T09:38:47;5.05;;;2.47;;
71570;SDS011;59407;42.682;23.322;2023-08-17T09:41:38;3.53;;;2.00;;
71570;SDS011;59407;42.682;23.322;2023-08-17T09:44:05;2.80;;;1.67;;
71570;SDS011;59407;42.682;23.322;2023-08-17T09:46:31;3.25;;;1.40;;
71570;SDS011;59407;42.682;23.322;2023-08-17T09:49:12;4.88;;;1.77;;
71570;SDS011;59407;42.682;23.322;2023-08-17T09:51:38;3.40;;;1.90;;
71570;SDS011;59407;42.682;23.322;2023-08-17T09:54:04;3.67;;;1.70;;
71570;SDS011;59407;42.682;23.322;2023-08-17T10:00:04;3.20;;;1.90;;
71570;SDS011;59407;42.682;23.322;2023-08-17T10:05:48;3.72;;;1.40;;
71570;SDS011;59407;42.682;23.322;2023-08-17T10:12:15;4.30;;;2.00;;
71570;SDS011;59407;42.682;23.322;2023-08-17T10:17:48;3.58;;;1.80;;
71570;SDS011;59407;42.682;23.322;2023-08-17T10:20:19;5.07;;;1.85;;
71570;SDS011;59407;42.682;23.322;2023-08-17T10:22:56;3.78;;;1.52;;
71570;SDS011;59407;42.682;23.322;2023-08-17T10:25:28;3.10;;;1.70;;
71570;SDS011;59407;42.682;23.322;2023-08-17T10:27:54;5.37;;;1.43;;
71570;SDS011;59407;42.682;23.322;2023-08-17T10:30:19;4.00;;;1.70;;
71570;SDS011;59407;42.682;23.322;2023-08-17T10:32:46;2.83;;;1.50;;
71570;SDS011;59407;42.682;23.322;2023-08-17T10:35:18;4.55;;;1.70;;
71570;SDS011;59407;42.682;23.322;2023-08-17T10:37:44;2.95;;;1.33;;
71570;SDS011;59407;42.682;23.322;2023-08-17T10:40:09;2.90;;;1.53;;
71570;SDS011;59407;42.682;23.322;2023-08-17T10:42:35;4.07;;;1.80;;
71570;SDS011;59407;42.682;23.322;2023-08-17T10:50:40;2.97;;;1.37;;
71570;SDS011;59407;42.682;23.322;2023-08-17T10:53:21;3.13;;;1.50;;
71570;SDS011;59407;42.682;23.322;2023-08-17T10:55:47;4.07;;;1.80;;
71570;SDS011;59407;42.682;23.322;2023-08-17T10:58:14;2.83;;;1.60;;
71570;SDS011;59407;42.682;23.322;2023-08-17T11:00:40;3.37;;;1.70;;
71570;SDS011;59407;42.682;23.322;2023-08-17T11:03:10;3.75;;;1.50;;
71570;SDS011;59407;42.682;23.322;2023-08-17T11:05:43;2.97;;;1.58;;
71570;SDS011;59407;42.682;23.322;2023-08-17T11:08:38;3.40;;;1.88;;
71570;SDS011;59407;42.682;23.322;2023-08-17T11:11:11;3.60;;;2.00;;
71570;SDS011;59407;42.682;23.322;2023-08-17T11:13:42;3.27;;;1.63;;
71570;SDS011;59407;42.682;23.322;2023-08-17T11:16:12;3.55;;;1.92;;
71570;SDS011;59407;42.682;23.322;2023-08-17T11:18:38;3.33;;;1.60;;
71570;SDS011;59407;42.682;23.322;2023-08-17T11:21:09;7.03;;;3.25;;
71570;SDS011;59407;42.682;23.322;2023-08-17T11:23:36;3.78;;;1.83;;
71570;SDS011;59407;42.682;23.322;2023-08-17T11:26:02;3.40;;;2.00;;
71570;SDS011;59407;42.682;23.322;2023-08-17T11:28:29;4.43;;;1.83;;
71570;SDS011;59407;42.682;23.322;2023-08-17T11:31:01;3.63;;;1.77;;
71570;SDS011;59407;42.682;23.322;2023-08-17T11:33:28;3.83;;;1.77;;
71570;SDS011;59407;42.682;23.322;2023-08-17T11:35:57;4.00;;;2.10;;
71570;SDS011;59407;42.682;23.322;2023-08-17T11:38:34;3.40;;;1.60;;
71570;SDS011;59407;42.682;23.322;2023-08-17T11:41:01;3.25;;;1.80;;
71570;SDS011;59407;42.682;23.322;2023-08-17T11:43:32;4.25;;;1.85;;
71570;SDS011;59407;42.682;23.322;2023-08-17T11:45:59;3.53;;;1.97;;
71570;SDS011;59407;42.682;23.322;2023-08-17T11:58:09;3.37;;;1.90;;
71570;SDS011;59407;42.682;23.322;2023-08-17T12:01:25;3.88;;;1.90;;
71570;SDS011;59407;42.682;23.322;2023-08-17T12:03:45;3.75;;;1.88;;
71570;SDS011;59407;42.682;23.322;2023-08-17T12:06:15;4.20;;;1.75;;
71570;SDS011;59407;42.682;23.322;2023-08-17T12:11:09;4.25;;;2.95;;
71570;SDS011;59407;42.682;23.322;2023-08-17T12:13:35;5.10;;;2.13;;
71570;SDS011;59407;42.682;23.322;2023-08-17T12:16:01;4.28;;;1.65;;
71570;SDS011;59407;42.682;23.322;2023-08-17T12:18:30;3.65;;;1.85;;
71570;SDS011;59407;42.682;23.322;2023-08-17T12:20:57;4.53;;;2.10;;
71570;SDS011;59407;42.682;23.322;2023-08-17T12:23:23;3.47;;;1.90;;
71570;SDS011;59407;42.682;23.322;2023-08-17T12:25:54;5.83;;;2.40;;
71570;SDS011;59407;42.682;23.322;2023-08-17T12:28:20;3.85;;;2.15;;
71570;SDS011;59407;42.682;23.322;2023-08-17T12:30:46;3.83;;;2.22;;
71570;SDS011;59407;42.682;23.322;2023-08-17T12:33:27;3.47;;;2.25;;
71570;SDS011;59407;42.682;23.322;2023-08-17T12:35:54;6.00;;;2.70;;
71570;SDS011;59407;42.682;23.322;2023-08-17T12:38:21;4.13;;;2.63;;
71570;SDS011;59407;42.682;23.322;2023-08-17T12:40:48;3.63;;;2.03;;
71570;SDS011;59407;42.682;23.322;2023-08-17T12:43:14;4.30;;;2.10;;
71570;SDS011;59407;42.682;23.322;2023-08-17T12:45:39;4.57;;;2.57;;
71570;SDS011;59407;42.682;23.322;2023-08-17T12:48:05;4.93;;;2.80;;
71570;SDS011;59407;42.682;23.322;2023-08-17T12:50:31;5.23;;;3.23;;
71570;SDS011;59407;42.682;23.322;2023-08-17T12:52:57;4.70;;;3.00;;
71570;SDS011;59407;42.682;23.322;2023-08-17T12:55:23;4.85;;;3.00;;
71570;SDS011;59407;42.682;23.322;2023-08-17T12:57:51;5.50;;;2.90;;
71570;SDS011;59407;42.682;23.322;2023-08-17T13:00:17;5.85;;;3.28;;
71570;SDS011;59407;42.682;23.322;2023-08-17T13:02:43;4.83;;;3.33;;
71570;SDS011;59407;42.682;23.322;2023-08-17T13:05:12;4.88;;;2.88;;
71570;SDS011;59407;42.682;23.322;2023-08-17T13:07:38;5.18;;;3.05;;
71570;SDS011;59407;42.682;23.322;2023-08-17T13:10:04;6.97;;;4.00;;
71570;SDS011;59407;42.682;23.322;2023-08-17T13:12:31;4.97;;;3.08;;
71570;SDS011;59407;42.682;23.322;2023-08-17T13:14:57;6.63;;;2.83;;
71570;SDS011;59407;42.682;23.322;2023-08-17T13:17:23;4.37;;;2.40;;
71570;SDS011;59407;42.682;23.322;2023-08-17T13:19:50;5.40;;;3.00;;
71570;SDS011;59407;42.682;23.322;2023-08-17T13:22:15;4.32;;;2.65;;
71570;SDS011;59407;42.682;23.322;2023-08-17T13:24:41;3.80;;;2.60;;
71570;SDS011;59407;42.682;23.322;2023-08-17T13:27:07;5.57;;;2.55;;
71570;SDS011;59407;42.682;23.322;2023-08-17T13:29:36;4.30;;;2.55;;
71570;SDS011;59407;42.682;23.322;2023-08-17T13:32:08;4.77;;;2.50;;
71570;SDS011;59407;42.682;23.322;2023-08-17T13:34:34;4.97;;;2.35;;
71570;SDS011;59407;42.682;23.322;2023-08-17T13:36:59;4.20;;;2.80;;
71570;SDS011;59407;42.682;23.322;2023-08-17T13:39:28;3.50;;;2.40;;
71570;SDS011;59407;42.682;23.322;2023-08-17T13:41:58;5.03;;;2.70;;
71570;SDS011;59407;42.682;23.322;2023-08-17T13:44:23;5.00;;;2.27;;
71570;SDS011;59407;42.682;23.322;2023-08-17T13:46:50;4.53;;;2.50;;
71570;SDS011;59407;42.682;23.322;2023-08-17T13:49:15;3.83;;;2.53;;
71570;SDS011;59407;42.682;23.322;2023-08-17T13:51:40;5.63;;;2.67;;
71570;SDS011;59407;42.682;23.322;2023-08-17T13:54:07;4.38;;;2.65;;
71570;SDS011;59407;42.682;23.322;2023-08-17T13:56:34;6.20;;;3.00;;
71570;SDS011;59407;42.682;23.322;2023-08-17T13:59:00;4.20;;;2.60;;
71570;SDS011;59407;42.682;23.322;2023-08-17T14:01:27;4.28;;;3.00;;
71570;SDS011;59407;42.682;23.322;2023-08-17T14:03:53;5.40;;;2.43;;
71570;SDS011;59407;42.682;23.322;2023-08-17T14:06:20;4.13;;;2.72;;
71570;SDS011;59407;42.682;23.322;2023-08-17T14:09:08;4.20;;;2.42;;
71570;SDS011;59407;42.682;23.322;2023-08-17T14:11:33;5.05;;;2.58;;
71570;SDS011;59407;42.682;23.322;2023-08-17T14:14:04;4.40;;;2.73;;
71570;SDS011;59407;42.682;23.322;2023-08-17T14:16:31;3.88;;;2.42;;
71570;SDS011;59407;42.682;23.322;2023-08-17T14:18:57;3.87;;;2.53;;
71570;SDS011;59407;42.682;23.322;2023-08-17T14:21:23;4.63;;;2.72;;
71570;SDS011;59407;42.682;23.322;2023-08-17T14:23:48;4.53;;;2.80;;
71570;SDS011;59407;42.682;23.322;2023-08-17T14:26:14;4.18;;;2.67;;
71570;SDS011;59407;42.682;23.322;2023-08-17T14:28:40;3.70;;;2.40;;
71570;SDS011;59407;42.682;23.322;2023-08-17T14:31:06;3.95;;;2.33;;
71570;SDS011;59407;42.682;23.322;2023-08-17T14:33:32;5.03;;;2.57;;
71570;SDS011;59407;42.682;23.322;2023-08-17T14:35:58;4.57;;;2.45;;
71570;SDS011;59407;42.682;23.322;2023-08-17T14:38:25;4.33;;;2.80;;
71570;SDS011;59407;42.682;23.322;2023-08-17T14:40:51;5.07;;;2.50;;
71570;SDS011;59407;42.682;23.322;2023-08-17T14:43:16;4.20;;;2.70;;
71570;SDS011;59407;42.682;23.322;2023-08-17T14:45:43;4.32;;;2.83;;
71570;SDS011;59407;42.682;23.322;2023-08-17T14:48:08;4.67;;;2.37;;
71570;SDS011;59407;42.682;23.322;2023-08-17T14:50:34;4.38;;;2.30;;
71570;SDS011;59407;42.682;23.322;2023-08-17T14:53:01;5.32;;;2.70;;
71570;SDS011;59407;42.682;23.322;2023-08-17T14:55:30;4.13;;;2.50;;
71570;SDS011;59407;42.682;23.322;2023-08-17T14:57:56;3.70;;;1.98;;
71570;SDS011;59407;42.682;23.322;2023-08-17T15:00:23;4.80;;;2.33;;
71570;SDS011;59407;42.682;23.322;2023-08-17T15:02:48;3.45;;;2.10;;
71570;SDS011;59407;42.682;23.322;2023-08-17T15:05:15;4.30;;;2.17;;
71570;SDS011;59407;42.682;23.322;2023-08-17T15:07:41;3.33;;;2.10;;
71570;SDS011;59407;42.682;23.322;2023-08-17T15:10:07;3.87;;;2.20;;
71570;SDS011;59407;42.682;23.322;2023-08-17T15:12:33;6.55;;;2.13;;